sensor_id;sensor_type;location;lat;lon;timestamp;P1;durP1;ratioP1;P2;durP2;ratioP2
7773;SDS011;3931;42.260;23.116;2023-02-15T00:01:50;31.17;;;18.13;;
7773;SDS011;3931;42.260;23.116;2023-02-15T00:04:18;31.63;;;17.23;;
7773;SDS011;3931;42.260;23.116;2023-02-15T00:06:46;28.77;;;17.27;;
7773;SDS011;3931;42.260;23.116;2023-02-15T00:09:13;29.97;;;16.43;;
7773;SDS011;3931;42.260;23.116;2023-02-15T00:11:39;30.40;;;18.40;;
7773;SDS011;3931;42.260;23.116;2023-02-15T00:14:05;31.00;;;18.00;;
7773;SDS011;3931;42.260;23.116;2023-02-15T00:16:32;25.33;;;16.27;;
7773;SDS011;3931;42.260;23.116;2023-02-15T00:18:58;32.77;;;18.73;;
7773;SDS011;3931;42.260;23.116;2023-02-15T00:21:26;29.67;;;17.40;;
7773;SDS011;3931;42.260;23.116;2023-02-15T00:23:54;29.53;;;17.23;;
7773;SDS011;3931;42.260;23.116;2023-02-15T00:26:20;32.93;;;17.60;;
7773;SDS011;3931;42.260;23.116;2023-02-15T00:28:46;31.63;;;18.67;;
7773;SDS011;3931;42.260;23.116;2023-02-15T00:31:12;36.90;;;19.47;;
7773;SDS011;3931;42.260;23.116;2023-02-15T00:33:38;34.47;;;18.50;;
7773;SDS011;3931;42.260;23.116;2023-02-15T00:36:05;35.30;;;19.47;;
7773;SDS011;3931;42.260;23.116;2023-02-15T00:38:33;32.70;;;17.90;;
7773;SDS011;3931;42.260;23.116;2023-02-15T00:41:01;37.07;;;19.67;;
7773;SDS011;3931;42.260;23.116;2023-02-15T00:43:29;34.30;;;18.43;;
7773;SDS011;3931;42.260;23.116;2023-02-15T00:45:56;32.43;;;18.40;;
7773;SDS011;3931;42.260;23.116;2023-02-15T00:48:22;31.60;;;17.77;;
7773;SDS011;3931;42.260;23.116;2023-02-15T00:50:48;32.97;;;18.87;;
7773;SDS011;3931;42.260;23.116;2023-02-15T00:53:16;39.87;;;20.40;;
7773;SDS011;3931;42.260;23.116;2023-02-15T00:55:42;41.63;;;21.27;;
7773;SDS011;3931;42.260;23.116;2023-02-15T00:58:09;35.13;;;19.10;;
7773;SDS011;3931;42.260;23.116;2023-02-15T01:00:36;31.83;;;18.60;;
7773;SDS011;3931;42.260;23.116;2023-02-15T01:03:03;31.50;;;18.47;;
7773;SDS011;3931;42.260;23.116;2023-02-15T01:05:30;33.30;;;17.73;;
7773;SDS011;3931;42.260;23.116;2023-02-15T01:07:57;29.37;;;17.30;;
7773;SDS011;3931;42.260;23.116;2023-02-15T01:10:24;29.70;;;17.30;;
7773;SDS011;3931;42.260;23.116;2023-02-15T01:12:50;27.40;;;15.40;;
7773;SDS011;3931;42.260;23.116;2023-02-15T01:15:17;26.73;;;15.40;;
7773;SDS011;3931;42.260;23.116;2023-02-15T01:17:43;24.67;;;14.83;;
7773;SDS011;3931;42.260;23.116;2023-02-15T01:20:16;19.47;;;12.70;;
7773;SDS011;3931;42.260;23.116;2023-02-15T01:22:42;25.03;;;14.40;;
7773;SDS011;3931;42.260;23.116;2023-02-15T01:25:08;29.07;;;13.77;;
7773;SDS011;3931;42.260;23.116;2023-02-15T01:27:34;21.90;;;13.80;;
7773;SDS011;3931;42.260;23.116;2023-02-15T01:30:00;23.40;;;15.20;;
7773;SDS011;3931;42.260;23.116;2023-02-15T01:32:27;23.97;;;13.70;;
7773;SDS011;3931;42.260;23.116;2023-02-15T01:34:53;23.60;;;15.60;;
7773;SDS011;3931;42.260;23.116;2023-02-15T01:37:19;27.40;;;14.67;;
7773;SDS011;3931;42.260;23.116;2023-02-15T01:39:45;27.20;;;15.20;;
7773;SDS011;3931;42.260;23.116;2023-02-15T01:42:11;30.53;;;15.50;;
7773;SDS011;3931;42.260;23.116;2023-02-15T01:44:48;27.10;;;16.13;;
7773;SDS011;3931;42.260;23.116;2023-02-15T01:47:17;24.20;;;13.97;;
7773;SDS011;3931;42.260;23.116;2023-02-15T01:49:48;29.43;;;17.63;;
7773;SDS011;3931;42.260;23.116;2023-02-15T01:52:22;33.87;;;17.13;;
7773;SDS011;3931;42.260;23.116;2023-02-15T01:54:49;32.83;;;17.07;;
7773;SDS011;3931;42.260;23.116;2023-02-15T01:57:17;27.70;;;16.53;;
7773;SDS011;3931;42.260;23.116;2023-02-15T01:59:48;31.80;;;17.00;;
7773;SDS011;3931;42.260;23.116;2023-02-15T02:02:18;28.90;;;16.10;;
7773;SDS011;3931;42.260;23.116;2023-02-15T02:04:50;36.20;;;16.23;;
7773;SDS011;3931;42.260;23.116;2023-02-15T02:07:19;31.67;;;16.07;;
7773;SDS011;3931;42.260;23.116;2023-02-15T02:09:47;27.70;;;15.30;;
7773;SDS011;3931;42.260;23.116;2023-02-15T02:12:13;26.73;;;15.13;;
7773;SDS011;3931;42.260;23.116;2023-02-15T02:14:41;27.93;;;16.47;;
7773;SDS011;3931;42.260;23.116;2023-02-15T02:17:10;27.07;;;16.57;;
7773;SDS011;3931;42.260;23.116;2023-02-15T02:26:06;25.40;;;14.90;;
7773;SDS011;3931;42.260;23.116;2023-02-15T02:29:07;27.73;;;15.07;;
7773;SDS011;3931;42.260;23.116;2023-02-15T02:31:54;28.43;;;15.43;;
7773;SDS011;3931;42.260;23.116;2023-02-15T02:34:46;30.33;;;16.30;;
7773;SDS011;3931;42.260;23.116;2023-02-15T02:37:22;27.77;;;15.80;;
7773;SDS011;3931;42.260;23.116;2023-02-15T02:39:58;31.20;;;15.80;;
7773;SDS011;3931;42.260;23.116;2023-02-15T02:42:34;26.83;;;15.73;;
7773;SDS011;3931;42.260;23.116;2023-02-15T02:45:05;35.07;;;15.90;;
7773;SDS011;3931;42.260;23.116;2023-02-15T02:47:34;25.87;;;15.17;;
7773;SDS011;3931;42.260;23.116;2023-02-15T02:50:07;25.40;;;15.40;;
7773;SDS011;3931;42.260;23.116;2023-02-15T02:52:36;25.13;;;14.27;;
7773;SDS011;3931;42.260;23.116;2023-02-15T02:55:05;23.50;;;13.50;;
7773;SDS011;3931;42.260;23.116;2023-02-15T02:57:35;24.10;;;13.57;;
7773;SDS011;3931;42.260;23.116;2023-02-15T03:00:06;22.00;;;12.90;;
7773;SDS011;3931;42.260;23.116;2023-02-15T03:02:34;25.93;;;14.50;;
7773;SDS011;3931;42.260;23.116;2023-02-15T03:05:07;25.57;;;14.37;;
7773;SDS011;3931;42.260;23.116;2023-02-15T03:07:38;22.73;;;14.17;;
7773;SDS011;3931;42.260;23.116;2023-02-15T03:10:07;22.10;;;12.60;;
7773;SDS011;3931;42.260;23.116;2023-02-15T03:12:35;25.40;;;14.30;;
7773;SDS011;3931;42.260;23.116;2023-02-15T03:15:04;24.87;;;14.60;;
7773;SDS011;3931;42.260;23.116;2023-02-15T03:17:32;27.13;;;13.67;;
7773;SDS011;3931;42.260;23.116;2023-02-15T03:20:01;24.87;;;14.80;;
7773;SDS011;3931;42.260;23.116;2023-02-15T03:22:33;22.40;;;14.40;;
7773;SDS011;3931;42.260;23.116;2023-02-15T03:25:02;25.57;;;14.50;;
7773;SDS011;3931;42.260;23.116;2023-02-15T03:27:35;26.30;;;14.13;;
7773;SDS011;3931;42.260;23.116;2023-02-15T03:30:05;25.80;;;14.20;;
7773;SDS011;3931;42.260;23.116;2023-02-15T03:32:33;24.80;;;14.83;;
7773;SDS011;3931;42.260;23.116;2023-02-15T03:35:02;22.37;;;13.53;;
7773;SDS011;3931;42.260;23.116;2023-02-15T03:37:31;24.73;;;14.23;;
7773;SDS011;3931;42.260;23.116;2023-02-15T03:40:02;24.73;;;14.30;;
7773;SDS011;3931;42.260;23.116;2023-02-15T03:42:49;22.73;;;14.10;;
7773;SDS011;3931;42.260;23.116;2023-02-15T03:45:26;26.37;;;14.50;;
7773;SDS011;3931;42.260;23.116;2023-02-15T03:47:56;25.17;;;14.57;;
7773;SDS011;3931;42.260;23.116;2023-02-15T03:50:26;27.07;;;15.57;;
7773;SDS011;3931;42.260;23.116;2023-02-15T03:53:14;26.00;;;14.80;;
7773;SDS011;3931;42.260;23.116;2023-02-15T03:55:46;26.83;;;15.13;;
7773;SDS011;3931;42.260;23.116;2023-02-15T03:58:12;25.50;;;12.93;;
7773;SDS011;3931;42.260;23.116;2023-02-15T04:00:57;23.40;;;13.27;;
7773;SDS011;3931;42.260;23.116;2023-02-15T04:03:45;33.27;;;16.93;;
7773;SDS011;3931;42.260;23.116;2023-02-15T04:06:19;30.50;;;15.43;;
7773;SDS011;3931;42.260;23.116;2023-02-15T04:08:46;25.70;;;15.33;;
7773;SDS011;3931;42.260;23.116;2023-02-15T04:11:30;25.57;;;15.37;;
7773;SDS011;3931;42.260;23.116;2023-02-15T04:13:56;32.67;;;17.53;;
7773;SDS011;3931;42.260;23.116;2023-02-15T04:16:23;28.57;;;15.90;;
7773;SDS011;3931;42.260;23.116;2023-02-15T04:18:49;28.37;;;15.80;;
7773;SDS011;3931;42.260;23.116;2023-02-15T04:21:33;29.13;;;17.20;;
7773;SDS011;3931;42.260;23.116;2023-02-15T04:24:18;32.67;;;16.90;;
7773;SDS011;3931;42.260;23.116;2023-02-15T04:27:02;33.47;;;16.77;;
7773;SDS011;3931;42.260;23.116;2023-02-15T04:29:30;32.57;;;18.60;;
7773;SDS011;3931;42.260;23.116;2023-02-15T04:31:57;36.30;;;18.90;;
7773;SDS011;3931;42.260;23.116;2023-02-15T04:34:24;33.23;;;17.93;;
7773;SDS011;3931;42.260;23.116;2023-02-15T04:36:50;34.70;;;18.37;;
7773;SDS011;3931;42.260;23.116;2023-02-15T04:39:17;36.40;;;18.13;;
7773;SDS011;3931;42.260;23.116;2023-02-15T04:41:44;35.83;;;18.27;;
7773;SDS011;3931;42.260;23.116;2023-02-15T04:44:11;34.33;;;17.40;;
7773;SDS011;3931;42.260;23.116;2023-02-15T04:46:37;30.80;;;17.80;;
7773;SDS011;3931;42.260;23.116;2023-02-15T04:49:03;32.63;;;17.40;;
7773;SDS011;3931;42.260;23.116;2023-02-15T04:51:29;30.37;;;17.17;;
7773;SDS011;3931;42.260;23.116;2023-02-15T04:53:56;30.10;;;16.43;;
7773;SDS011;3931;42.260;23.116;2023-02-15T04:56:22;27.17;;;17.40;;
7773;SDS011;3931;42.260;23.116;2023-02-15T04:58:49;29.97;;;17.03;;
7773;SDS011;3931;42.260;23.116;2023-02-15T05:01:15;29.37;;;16.93;;
7773;SDS011;3931;42.260;23.116;2023-02-15T05:03:41;31.30;;;17.60;;
7773;SDS011;3931;42.260;23.116;2023-02-15T05:06:07;32.17;;;17.90;;
7773;SDS011;3931;42.260;23.116;2023-02-15T05:08:33;48.47;;;25.27;;
7773;SDS011;3931;42.260;23.116;2023-02-15T05:10:59;114.10;;;43.17;;
7773;SDS011;3931;42.260;23.116;2023-02-15T05:13:25;116.10;;;43.93;;
7773;SDS011;3931;42.260;23.116;2023-02-15T05:15:52;132.17;;;45.73;;
7773;SDS011;3931;42.260;23.116;2023-02-15T05:18:18;91.20;;;38.93;;
7773;SDS011;3931;42.260;23.116;2023-02-15T05:20:45;45.10;;;23.60;;
7773;SDS011;3931;42.260;23.116;2023-02-15T05:23:12;43.90;;;23.57;;
7773;SDS011;3931;42.260;23.116;2023-02-15T05:25:38;40.23;;;22.20;;
7773;SDS011;3931;42.260;23.116;2023-02-15T05:28:24;50.57;;;27.27;;
7773;SDS011;3931;42.260;23.116;2023-02-15T05:30:58;39.67;;;20.90;;
7773;SDS011;3931;42.260;23.116;2023-02-15T05:33:28;38.10;;;21.07;;
7773;SDS011;3931;42.260;23.116;2023-02-15T05:35:54;34.60;;;19.27;;
7773;SDS011;3931;42.260;23.116;2023-02-15T05:38:20;37.70;;;20.00;;
7773;SDS011;3931;42.260;23.116;2023-02-15T05:40:46;38.13;;;19.87;;
7773;SDS011;3931;42.260;23.116;2023-02-15T05:43:12;42.63;;;24.07;;
7773;SDS011;3931;42.260;23.116;2023-02-15T05:45:38;37.83;;;22.13;;
7773;SDS011;3931;42.260;23.116;2023-02-15T05:48:05;36.30;;;21.10;;
7773;SDS011;3931;42.260;23.116;2023-02-15T05:50:31;36.03;;;21.43;;
7773;SDS011;3931;42.260;23.116;2023-02-15T05:52:57;40.53;;;20.90;;
7773;SDS011;3931;42.260;23.116;2023-02-15T05:55:23;50.17;;;25.03;;
7773;SDS011;3931;42.260;23.116;2023-02-15T05:57:49;39.50;;;21.13;;
7773;SDS011;3931;42.260;23.116;2023-02-15T06:00:15;37.30;;;20.90;;
7773;SDS011;3931;42.260;23.116;2023-02-15T06:02:42;69.57;;;32.05;;
7773;SDS011;3931;42.260;23.116;2023-02-15T06:05:08;43.10;;;22.47;;
7773;SDS011;3931;42.260;23.116;2023-02-15T06:07:34;53.10;;;25.70;;
7773;SDS011;3931;42.260;23.116;2023-02-15T06:10:00;51.63;;;24.37;;
7773;SDS011;3931;42.260;23.116;2023-02-15T06:12:27;50.93;;;24.73;;
7773;SDS011;3931;42.260;23.116;2023-02-15T06:14:53;48.70;;;23.60;;
7773;SDS011;3931;42.260;23.116;2023-02-15T06:17:19;49.07;;;24.53;;
7773;SDS011;3931;42.260;23.116;2023-02-15T06:19:46;50.17;;;25.60;;
7773;SDS011;3931;42.260;23.116;2023-02-15T06:22:13;48.47;;;23.77;;
7773;SDS011;3931;42.260;23.116;2023-02-15T06:24:39;49.93;;;25.23;;
7773;SDS011;3931;42.260;23.116;2023-02-15T06:27:07;42.83;;;23.60;;
7773;SDS011;3931;42.260;23.116;2023-02-15T06:29:33;45.40;;;23.27;;
7773;SDS011;3931;42.260;23.116;2023-02-15T06:31:59;37.67;;;21.60;;
7773;SDS011;3931;42.260;23.116;2023-02-15T06:34:25;44.50;;;21.70;;
7773;SDS011;3931;42.260;23.116;2023-02-15T06:36:51;41.03;;;23.27;;
7773;SDS011;3931;42.260;23.116;2023-02-15T06:39:18;40.07;;;22.10;;
7773;SDS011;3931;42.260;23.116;2023-02-15T06:41:44;39.97;;;21.70;;
7773;SDS011;3931;42.260;23.116;2023-02-15T06:44:10;42.87;;;23.13;;
7773;SDS011;3931;42.260;23.116;2023-02-15T06:46:36;43.30;;;22.73;;
7773;SDS011;3931;42.260;23.116;2023-02-15T06:49:02;43.23;;;23.20;;
7773;SDS011;3931;42.260;23.116;2023-02-15T06:51:28;42.03;;;22.13;;
7773;SDS011;3931;42.260;23.116;2023-02-15T06:53:54;37.47;;;21.40;;
7773;SDS011;3931;42.260;23.116;2023-02-15T06:56:21;42.10;;;21.83;;
7773;SDS011;3931;42.260;23.116;2023-02-15T06:58:47;38.80;;;23.70;;
7773;SDS011;3931;42.260;23.116;2023-02-15T07:01:14;44.53;;;23.43;;
7773;SDS011;3931;42.260;23.116;2023-02-15T07:03:41;40.27;;;22.50;;
7773;SDS011;3931;42.260;23.116;2023-02-15T07:06:07;37.23;;;19.77;;
7773;SDS011;3931;42.260;23.116;2023-02-15T07:08:35;46.10;;;23.50;;
7773;SDS011;3931;42.260;23.116;2023-02-15T07:11:02;44.80;;;23.63;;
7773;SDS011;3931;42.260;23.116;2023-02-15T07:13:43;45.87;;;22.63;;
7773;SDS011;3931;42.260;23.116;2023-02-15T07:16:10;44.87;;;22.90;;
7773;SDS011;3931;42.260;23.116;2023-02-15T07:18:36;43.53;;;23.90;;
7773;SDS011;3931;42.260;23.116;2023-02-15T07:21:03;44.80;;;24.40;;
7773;SDS011;3931;42.260;23.116;2023-02-15T07:23:29;47.30;;;22.67;;
7773;SDS011;3931;42.260;23.116;2023-02-15T07:25:56;46.63;;;25.50;;
7773;SDS011;3931;42.260;23.116;2023-02-15T07:28:22;43.60;;;23.80;;
7773;SDS011;3931;42.260;23.116;2023-02-15T07:30:49;41.20;;;21.83;;
7773;SDS011;3931;42.260;23.116;2023-02-15T07:33:15;41.33;;;22.27;;
7773;SDS011;3931;42.260;23.116;2023-02-15T07:35:52;47.50;;;24.87;;
7773;SDS011;3931;42.260;23.116;2023-02-15T07:38:19;42.10;;;23.73;;
7773;SDS011;3931;42.260;23.116;2023-02-15T07:40:46;64.83;;;23.80;;
7773;SDS011;3931;42.260;23.116;2023-02-15T07:43:12;48.47;;;26.17;;
7773;SDS011;3931;42.260;23.116;2023-02-15T07:45:39;49.20;;;25.97;;
7773;SDS011;3931;42.260;23.116;2023-02-15T07:48:06;52.03;;;27.23;;
7773;SDS011;3931;42.260;23.116;2023-02-15T07:50:33;43.00;;;25.07;;
7773;SDS011;3931;42.260;23.116;2023-02-15T07:53:00;46.90;;;25.80;;
7773;SDS011;3931;42.260;23.116;2023-02-15T07:55:27;44.77;;;25.80;;
7773;SDS011;3931;42.260;23.116;2023-02-15T07:57:53;68.63;;;28.00;;
7773;SDS011;3931;42.260;23.116;2023-02-15T08:00:20;50.50;;;25.77;;
7773;SDS011;3931;42.260;23.116;2023-02-15T08:02:49;57.63;;;27.60;;
7773;SDS011;3931;42.260;23.116;2023-02-15T08:05:37;64.40;;;30.20;;
7773;SDS011;3931;42.260;23.116;2023-02-15T08:08:04;63.67;;;33.93;;
7773;SDS011;3931;42.260;23.116;2023-02-15T08:10:30;69.90;;;36.33;;
7773;SDS011;3931;42.260;23.116;2023-02-15T08:13:15;70.20;;;36.47;;
7773;SDS011;3931;42.260;23.116;2023-02-15T08:15:47;65.93;;;33.40;;
7773;SDS011;3931;42.260;23.116;2023-02-15T08:18:13;86.03;;;39.47;;
7773;SDS011;3931;42.260;23.116;2023-02-15T08:20:40;94.17;;;40.20;;
7773;SDS011;3931;42.260;23.116;2023-02-15T08:23:06;102.73;;;42.90;;
7773;SDS011;3931;42.260;23.116;2023-02-15T08:25:32;83.60;;;42.90;;
7773;SDS011;3931;42.260;23.116;2023-02-15T08:27:58;94.07;;;40.37;;
7773;SDS011;3931;42.260;23.116;2023-02-15T08:30:24;85.17;;;35.80;;
7773;SDS011;3931;42.260;23.116;2023-02-15T08:32:50;78.63;;;31.27;;
7773;SDS011;3931;42.260;23.116;2023-02-15T08:35:16;74.30;;;28.83;;
7773;SDS011;3931;42.260;23.116;2023-02-15T08:37:43;60.33;;;28.00;;
7773;SDS011;3931;42.260;23.116;2023-02-15T08:40:10;48.20;;;24.97;;
7773;SDS011;3931;42.260;23.116;2023-02-15T08:42:38;49.40;;;22.67;;
7773;SDS011;3931;42.260;23.116;2023-02-15T08:45:04;47.97;;;22.63;;
7773;SDS011;3931;42.260;23.116;2023-02-15T08:47:31;41.67;;;22.30;;
7773;SDS011;3931;42.260;23.116;2023-02-15T08:49:57;40.43;;;21.00;;
7773;SDS011;3931;42.260;23.116;2023-02-15T08:52:23;43.30;;;22.03;;
7773;SDS011;3931;42.260;23.116;2023-02-15T08:54:49;43.07;;;22.33;;
7773;SDS011;3931;42.260;23.116;2023-02-15T08:57:15;57.03;;;24.50;;
7773;SDS011;3931;42.260;23.116;2023-02-15T08:59:41;49.13;;;19.73;;
7773;SDS011;3931;42.260;23.116;2023-02-15T09:02:09;38.23;;;21.00;;
7773;SDS011;3931;42.260;23.116;2023-02-15T09:04:36;36.10;;;20.60;;
7773;SDS011;3931;42.260;23.116;2023-02-15T09:07:02;46.03;;;23.37;;
7773;SDS011;3931;42.260;23.116;2023-02-15T09:09:29;39.60;;;19.43;;
7773;SDS011;3931;42.260;23.116;2023-02-15T09:11:57;43.90;;;18.23;;
7773;SDS011;3931;42.260;23.116;2023-02-15T09:14:23;35.33;;;19.20;;
7773;SDS011;3931;42.260;23.116;2023-02-15T09:16:51;26.67;;;16.07;;
7773;SDS011;3931;42.260;23.116;2023-02-15T09:19:18;29.37;;;15.80;;
7773;SDS011;3931;42.260;23.116;2023-02-15T09:21:45;35.57;;;18.50;;
7773;SDS011;3931;42.260;23.116;2023-02-15T09:24:13;51.73;;;19.90;;
7773;SDS011;3931;42.260;23.116;2023-02-15T09:26:41;29.47;;;17.60;;
7773;SDS011;3931;42.260;23.116;2023-02-15T09:29:11;36.17;;;17.40;;
7773;SDS011;3931;42.260;23.116;2023-02-15T09:31:40;39.23;;;16.90;;
7773;SDS011;3931;42.260;23.116;2023-02-15T09:34:09;27.40;;;16.33;;
7773;SDS011;3931;42.260;23.116;2023-02-15T09:36:36;26.00;;;15.40;;
7773;SDS011;3931;42.260;23.116;2023-02-15T09:39:05;31.63;;;16.77;;
7773;SDS011;3931;42.260;23.116;2023-02-15T09:41:36;37.07;;;15.43;;
7773;SDS011;3931;42.260;23.116;2023-02-15T09:44:25;54.17;;;17.30;;
7773;SDS011;3931;42.260;23.116;2023-02-15T09:47:10;45.17;;;18.50;;
7773;SDS011;3931;42.260;23.116;2023-02-15T09:49:52;36.53;;;14.57;;
7773;SDS011;3931;42.260;23.116;2023-02-15T09:52:30;50.17;;;15.90;;
7773;SDS011;3931;42.260;23.116;2023-02-15T09:55:12;46.63;;;16.00;;
7773;SDS011;3931;42.260;23.116;2023-02-15T09:57:50;30.83;;;17.90;;
7773;SDS011;3931;42.260;23.116;2023-02-15T10:00:26;37.43;;;16.37;;
7773;SDS011;3931;42.260;23.116;2023-02-15T10:03:02;28.67;;;13.70;;
7773;SDS011;3931;42.260;23.116;2023-02-15T10:05:42;26.67;;;15.23;;
7773;SDS011;3931;42.260;23.116;2023-02-15T10:08:24;45.30;;;16.40;;
7773;SDS011;3931;42.260;23.116;2023-02-15T10:11:06;37.83;;;16.07;;
7773;SDS011;3931;42.260;23.116;2023-02-15T10:14:02;21.97;;;14.17;;
7773;SDS011;3931;42.260;23.116;2023-02-15T10:16:41;36.07;;;15.37;;
7773;SDS011;3931;42.260;23.116;2023-02-15T10:19:18;31.27;;;18.07;;
7773;SDS011;3931;42.260;23.116;2023-02-15T10:22:01;23.80;;;13.77;;
7773;SDS011;3931;42.260;23.116;2023-02-15T10:24:43;23.90;;;14.80;;
7773;SDS011;3931;42.260;23.116;2023-02-15T10:27:29;35.67;;;17.60;;
7773;SDS011;3931;42.260;23.116;2023-02-15T10:30:02;38.23;;;16.37;;
7773;SDS011;3931;42.260;23.116;2023-02-15T10:32:36;24.20;;;15.30;;
7773;SDS011;3931;42.260;23.116;2023-02-15T10:35:10;28.13;;;15.00;;
7773;SDS011;3931;42.260;23.116;2023-02-15T10:37:49;26.60;;;14.87;;
7773;SDS011;3931;42.260;23.116;2023-02-15T10:40:25;25.03;;;13.80;;
7773;SDS011;3931;42.260;23.116;2023-02-15T10:43:16;22.60;;;15.30;;
7773;SDS011;3931;42.260;23.116;2023-02-15T10:45:55;19.60;;;13.10;;
7773;SDS011;3931;42.260;23.116;2023-02-15T10:48:34;29.03;;;14.10;;
7773;SDS011;3931;42.260;23.116;2023-02-15T10:51:19;35.67;;;14.37;;
7773;SDS011;3931;42.260;23.116;2023-02-15T10:54:09;29.40;;;13.53;;
7773;SDS011;3931;42.260;23.116;2023-02-15T10:56:47;23.20;;;12.67;;
7773;SDS011;3931;42.260;23.116;2023-02-15T10:59:25;50.37;;;20.60;;
7773;SDS011;3931;42.260;23.116;2023-02-15T11:02:04;27.80;;;15.30;;
7773;SDS011;3931;42.260;23.116;2023-02-15T11:04:46;37.80;;;16.47;;
7773;SDS011;3931;42.260;23.116;2023-02-15T11:07:18;47.50;;;17.37;;
7773;SDS011;3931;42.260;23.116;2023-02-15T11:09:49;28.33;;;15.27;;
7773;SDS011;3931;42.260;23.116;2023-02-15T11:12:20;26.27;;;14.53;;
7773;SDS011;3931;42.260;23.116;2023-02-15T11:14:50;33.60;;;15.83;;
7773;SDS011;3931;42.260;23.116;2023-02-15T11:17:22;22.93;;;13.77;;
7773;SDS011;3931;42.260;23.116;2023-02-15T11:19:54;24.90;;;14.30;;
7773;SDS011;3931;42.260;23.116;2023-02-15T11:22:25;26.53;;;13.60;;
7773;SDS011;3931;42.260;23.116;2023-02-15T11:24:51;32.13;;;15.93;;
7773;SDS011;3931;42.260;23.116;2023-02-15T11:27:19;36.90;;;13.90;;
7773;SDS011;3931;42.260;23.116;2023-02-15T11:29:50;19.53;;;14.20;;
7773;SDS011;3931;42.260;23.116;2023-02-15T11:32:21;20.20;;;13.67;;
7773;SDS011;3931;42.260;23.116;2023-02-15T11:34:53;23.97;;;13.87;;
7773;SDS011;3931;42.260;23.116;2023-02-15T11:37:23;34.33;;;23.27;;
7773;SDS011;3931;42.260;23.116;2023-02-15T11:39:54;35.90;;;13.30;;
7773;SDS011;3931;42.260;23.116;2023-02-15T11:42:20;26.33;;;13.53;;
7773;SDS011;3931;42.260;23.116;2023-02-15T11:44:52;32.27;;;15.87;;
7773;SDS011;3931;42.260;23.116;2023-02-15T11:47:24;36.13;;;15.37;;
7773;SDS011;3931;42.260;23.116;2023-02-15T11:49:50;23.67;;;12.20;;
7773;SDS011;3931;42.260;23.116;2023-02-15T11:52:17;26.97;;;14.07;;
7773;SDS011;3931;42.260;23.116;2023-02-15T11:54:45;18.47;;;13.00;;
7773;SDS011;3931;42.260;23.116;2023-02-15T11:57:15;24.10;;;15.10;;
7773;SDS011;3931;42.260;23.116;2023-02-15T11:59:47;23.60;;;13.90;;
7773;SDS011;3931;42.260;23.116;2023-02-15T12:02:19;90.83;;;27.40;;
7773;SDS011;3931;42.260;23.116;2023-02-15T12:04:48;35.40;;;16.37;;
7773;SDS011;3931;42.260;23.116;2023-02-15T12:07:19;51.63;;;21.43;;
7773;SDS011;3931;42.260;23.116;2023-02-15T12:09:51;33.97;;;15.23;;
7773;SDS011;3931;42.260;23.116;2023-02-15T12:12:26;40.17;;;21.17;;
7773;SDS011;3931;42.260;23.116;2023-02-15T12:14:53;30.17;;;13.37;;
7773;SDS011;3931;42.260;23.116;2023-02-15T12:17:20;96.57;;;37.10;;
7773;SDS011;3931;42.260;23.116;2023-02-15T12:19:48;28.00;;;14.83;;
7773;SDS011;3931;42.260;23.116;2023-02-15T12:22:21;27.83;;;12.33;;
7773;SDS011;3931;42.260;23.116;2023-02-15T12:24:50;46.47;;;14.50;;
7773;SDS011;3931;42.260;23.116;2023-02-15T12:27:18;96.23;;;18.23;;
7773;SDS011;3931;42.260;23.116;2023-02-15T12:29:48;20.93;;;13.93;;
7773;SDS011;3931;42.260;23.116;2023-02-15T12:32:17;34.13;;;13.93;;
7773;SDS011;3931;42.260;23.116;2023-02-15T12:34:45;21.03;;;13.63;;
7773;SDS011;3931;42.260;23.116;2023-02-15T12:37:15;27.87;;;13.80;;
7773;SDS011;3931;42.260;23.116;2023-02-15T12:39:51;30.37;;;13.17;;
7773;SDS011;3931;42.260;23.116;2023-02-15T12:42:19;25.47;;;12.73;;
7773;SDS011;3931;42.260;23.116;2023-02-15T12:44:53;23.23;;;14.37;;
7773;SDS011;3931;42.260;23.116;2023-02-15T12:47:24;28.53;;;15.43;;
7773;SDS011;3931;42.260;23.116;2023-02-15T12:50:05;27.67;;;14.30;;
7773;SDS011;3931;42.260;23.116;2023-02-15T12:52:36;25.97;;;13.43;;
7773;SDS011;3931;42.260;23.116;2023-02-15T12:55:10;19.83;;;12.50;;
7773;SDS011;3931;42.260;23.116;2023-02-15T12:57:42;27.47;;;15.13;;
7773;SDS011;3931;42.260;23.116;2023-02-15T13:00:26;23.60;;;14.03;;
7773;SDS011;3931;42.260;23.116;2023-02-15T13:02:56;45.80;;;16.87;;
7773;SDS011;3931;42.260;23.116;2023-02-15T13:05:25;31.73;;;15.77;;
7773;SDS011;3931;42.260;23.116;2023-02-15T13:07:56;23.93;;;13.87;;
7773;SDS011;3931;42.260;23.116;2023-02-15T13:10:26;24.10;;;13.73;;
7773;SDS011;3931;42.260;23.116;2023-02-15T13:12:54;22.80;;;13.70;;
7773;SDS011;3931;42.260;23.116;2023-02-15T13:15:34;26.60;;;14.60;;
7773;SDS011;3931;42.260;23.116;2023-02-15T13:18:04;41.93;;;15.83;;
7773;SDS011;3931;42.260;23.116;2023-02-15T13:20:35;22.70;;;14.10;;
7773;SDS011;3931;42.260;23.116;2023-02-15T13:23:06;17.80;;;12.70;;
7773;SDS011;3931;42.260;23.116;2023-02-15T13:25:44;54.63;;;16.30;;
7773;SDS011;3931;42.260;23.116;2023-02-15T13:28:15;43.17;;;16.10;;
7773;SDS011;3931;42.260;23.116;2023-02-15T13:30:45;28.87;;;14.60;;
7773;SDS011;3931;42.260;23.116;2023-02-15T13:33:14;23.17;;;14.00;;
7773;SDS011;3931;42.260;23.116;2023-02-15T13:35:48;26.80;;;14.40;;
7773;SDS011;3931;42.260;23.116;2023-02-15T13:38:35;26.10;;;15.00;;
7773;SDS011;3931;42.260;23.116;2023-02-15T13:41:21;21.10;;;12.50;;
7773;SDS011;3931;42.260;23.116;2023-02-15T13:43:55;27.33;;;14.20;;
7773;SDS011;3931;42.260;23.116;2023-02-15T13:46:41;20.90;;;14.00;;
7773;SDS011;3931;42.260;23.116;2023-02-15T13:49:27;28.93;;;13.57;;
7773;SDS011;3931;42.260;23.116;2023-02-15T13:52:11;51.57;;;14.07;;
7773;SDS011;3931;42.260;23.116;2023-02-15T13:54:50;24.73;;;13.37;;
7773;SDS011;3931;42.260;23.116;2023-02-15T13:57:31;24.63;;;14.17;;
7773;SDS011;3931;42.260;23.116;2023-02-15T14:00:17;31.00;;;14.70;;
7773;SDS011;3931;42.260;23.116;2023-02-15T14:02:55;23.30;;;12.40;;
7773;SDS011;3931;42.260;23.116;2023-02-15T14:05:49;40.73;;;13.17;;
7773;SDS011;3931;42.260;23.116;2023-02-15T14:08:29;24.57;;;12.90;;
7773;SDS011;3931;42.260;23.116;2023-02-15T14:11:11;29.97;;;13.17;;
7773;SDS011;3931;42.260;23.116;2023-02-15T14:13:49;23.20;;;12.60;;
7773;SDS011;3931;42.260;23.116;2023-02-15T14:16:35;23.50;;;14.43;;
7773;SDS011;3931;42.260;23.116;2023-02-15T14:19:10;24.37;;;16.13;;
7773;SDS011;3931;42.260;23.116;2023-02-15T14:21:46;21.60;;;13.63;;
7773;SDS011;3931;42.260;23.116;2023-02-15T14:24:25;41.30;;;21.77;;
7773;SDS011;3931;42.260;23.116;2023-02-15T14:26:57;36.13;;;19.80;;
7773;SDS011;3931;42.260;23.116;2023-02-15T14:29:35;24.30;;;14.20;;
7773;SDS011;3931;42.260;23.116;2023-02-15T14:32:13;22.60;;;13.93;;
7773;SDS011;3931;42.260;23.116;2023-02-15T14:34:44;27.30;;;16.27;;
7773;SDS011;3931;42.260;23.116;2023-02-15T14:37:15;29.50;;;18.60;;
7773;SDS011;3931;42.260;23.116;2023-02-15T14:39:48;21.57;;;13.07;;
7773;SDS011;3931;42.260;23.116;2023-02-15T14:42:40;30.40;;;20.17;;
7773;SDS011;3931;42.260;23.116;2023-02-15T14:45:17;43.57;;;16.67;;
7773;SDS011;3931;42.260;23.116;2023-02-15T14:47:48;30.27;;;16.07;;
7773;SDS011;3931;42.260;23.116;2023-02-15T14:50:37;26.93;;;15.17;;
7773;SDS011;3931;42.260;23.116;2023-02-15T14:53:15;32.43;;;15.80;;
7773;SDS011;3931;42.260;23.116;2023-02-15T14:59:00;27.00;;;17.07;;
7773;SDS011;3931;42.260;23.116;2023-02-15T15:01:51;34.17;;;17.80;;
7773;SDS011;3931;42.260;23.116;2023-02-15T15:04:23;32.40;;;18.90;;
7773;SDS011;3931;42.260;23.116;2023-02-15T15:06:57;27.17;;;16.27;;